createdAt,value
2022-10-24T00:01:16.026Z,24.97
2022-10-24T00:03:43.193Z,23.70
2022-10-24T00:06:11.864Z,24.20
2022-10-24T00:08:39.969Z,22.80
2022-10-24T00:11:33.904Z,23.60
2022-10-24T00:14:01.583Z,21.77
2022-10-24T00:16:28.872Z,21.90
2022-10-24T00:18:55.853Z,24.20
2022-10-24T00:21:22.925Z,22.37
2022-10-24T00:23:50.000Z,22.50
2022-10-24T00:26:17.168Z,22.93
2022-10-24T00:28:44.795Z,21.97
2022-10-24T00:31:17.234Z,20.57
2022-10-24T00:33:44.841Z,22.43
2022-10-24T00:36:17.947Z,21.70
2022-10-24T00:38:45.651Z,21.73
2022-10-24T00:41:17.814Z,21.27
2022-10-24T00:43:45.330Z,21.13
2022-10-24T00:46:12.731Z,21.03
2022-10-24T00:48:46.903Z,20.50
2022-10-24T00:51:27.183Z,19.03
2022-10-24T00:54:01.189Z,19.07
2022-10-24T00:56:32.184Z,19.30
2022-10-24T00:59:01.592Z,20.00
2022-10-24T01:01:29.122Z,20.47
2022-10-24T01:03:56.219Z,21.60
2022-10-24T01:06:41.872Z,23.00
2022-10-24T01:09:27.391Z,22.00
2022-10-24T01:12:20.529Z,21.60
2022-10-24T01:15:04.076Z,21.40
2022-10-24T01:17:46.097Z,20.27
2022-10-24T01:20:45.051Z,22.13
2022-10-24T01:23:23.003Z,21.77
2022-10-24T01:26:07.847Z,23.30
2022-10-24T01:29:03.642Z,22.47
2022-10-24T01:31:39.862Z,20.50
2022-10-24T01:34:15.695Z,20.57
2022-10-24T01:37:07.219Z,20.10
2022-10-24T01:39:42.749Z,20.83
2022-10-24T01:42:12.989Z,19.73
2022-10-24T01:44:48.370Z,19.43
2022-10-24T01:47:19.508Z,19.33
2022-10-24T01:49:53.529Z,20.40
2022-10-24T01:52:21.600Z,19.70
2022-10-24T01:54:49.804Z,18.47
2022-10-24T01:57:16.724Z,18.20
2022-10-24T01:59:47.419Z,17.93
2022-10-24T02:02:33.025Z,18.87
2022-10-24T02:05:12.211Z,18.87
2022-10-24T02:07:42.336Z,17.27
2022-10-24T02:10:15.961Z,17.47
2022-10-24T02:12:49.752Z,17.40
2022-10-24T02:15:28.924Z,18.33
2022-10-24T02:17:57.046Z,16.93
2022-10-24T02:20:37.150Z,18.67
2022-10-24T02:23:12.279Z,18.83
2022-10-24T02:28:29.427Z,19.40
2022-10-24T02:31:12.372Z,19.93
2022-10-24T02:33:41.083Z,18.30
2022-10-24T02:36:11.386Z,19.13
2022-10-24T02:38:42.191Z,20.80
2022-10-24T02:41:13.881Z,19.73
2022-10-24T02:43:42.787Z,22.07
2022-10-24T02:46:13.456Z,19.53
2022-10-24T02:48:49.464Z,18.93
2022-10-24T02:51:19.211Z,19.97
2022-10-24T02:53:46.864Z,21.10
2022-10-24T02:56:13.901Z,20.20
2022-10-24T02:58:40.971Z,20.17
2022-10-24T03:01:07.963Z,19.77
2022-10-24T03:03:35.099Z,17.67
2022-10-24T03:06:02.180Z,17.90
2022-10-24T03:08:29.141Z,17.57
2022-10-24T03:10:56.159Z,18.53
2022-10-24T03:13:23.178Z,16.10
2022-10-24T03:15:50.106Z,15.63
2022-10-24T03:18:17.199Z,15.60
2022-10-24T03:20:44.218Z,15.83
2022-10-24T03:23:11.295Z,16.23
2022-10-24T03:25:38.386Z,16.47
2022-10-24T03:28:05.441Z,18.30
2022-10-24T03:30:32.416Z,15.77
2022-10-24T03:32:59.404Z,17.63
2022-10-24T03:35:26.405Z,18.10
2022-10-24T03:37:53.341Z,15.73
2022-10-24T03:40:20.319Z,14.40
2022-10-24T03:42:47.666Z,14.83
2022-10-24T03:45:15.789Z,14.93
2022-10-24T03:47:42.804Z,13.83
2022-10-24T03:50:09.958Z,15.53
2022-10-24T03:52:36.941Z,14.13
2022-10-24T03:55:04.336Z,12.40
2022-10-24T03:57:31.310Z,13.70
2022-10-24T03:59:58.315Z,13.80
2022-10-24T04:02:25.427Z,14.10
2022-10-24T04:04:52.429Z,15.50
2022-10-24T04:07:19.467Z,15.77
2022-10-24T04:09:46.625Z,17.03
2022-10-24T04:12:13.863Z,15.53
2022-10-24T04:14:41.142Z,14.90
2022-10-24T04:17:08.102Z,14.50
2022-10-24T04:19:35.062Z,15.33
2022-10-24T04:22:02.073Z,15.47
2022-10-24T04:24:29.289Z,16.90
2022-10-24T04:26:56.370Z,17.00
2022-10-24T04:29:23.354Z,17.20
2022-10-24T04:31:50.393Z,15.77
2022-10-24T04:34:18.055Z,16.87
2022-10-24T04:36:45.038Z,16.70
2022-10-24T04:39:12.132Z,18.00
2022-10-24T04:41:39.064Z,18.80
2022-10-24T04:44:06.075Z,17.63
2022-10-24T04:46:33.227Z,18.27
2022-10-24T04:49:00.274Z,18.07
2022-10-24T04:51:27.320Z,18.77
2022-10-24T04:53:54.305Z,17.80
2022-10-24T04:56:21.448Z,19.23
2022-10-24T04:58:48.460Z,19.47
2022-10-24T05:01:15.551Z,18.83
2022-10-24T05:03:42.555Z,20.27
2022-10-24T05:06:10.087Z,19.90
2022-10-24T05:08:37.017Z,22.27
2022-10-24T05:11:04.377Z,20.77
2022-10-24T05:13:34.364Z,20.57
2022-10-24T05:16:04.069Z,22.90
2022-10-24T05:18:31.091Z,23.70
2022-10-24T05:20:59.588Z,23.90
2022-10-24T05:23:27.020Z,23.97
2022-10-24T05:25:54.403Z,25.57
2022-10-24T05:28:21.424Z,23.87
2022-10-24T05:30:48.825Z,23.80
2022-10-24T05:33:15.929Z,22.87
2022-10-24T05:35:42.887Z,23.00
2022-10-24T05:38:09.907Z,22.90
2022-10-24T05:40:36.854Z,22.77
2022-10-24T05:43:03.982Z,27.83
2022-10-24T05:45:31.019Z,22.90
2022-10-24T05:47:58.049Z,25.67
2022-10-24T05:50:26.742Z,24.87
2022-10-24T05:52:53.928Z,22.47
2022-10-24T05:55:20.911Z,22.93
2022-10-24T05:57:48.209Z,23.07
2022-10-24T06:00:16.825Z,23.23
2022-10-24T06:02:44.220Z,24.80
2022-10-24T06:05:12.004Z,22.63
2022-10-24T06:07:39.745Z,22.07
2022-10-24T06:10:07.182Z,27.73
2022-10-24T06:12:36.426Z,23.60
2022-10-24T06:15:05.406Z,25.50
2022-10-24T06:17:32.473Z,23.77
2022-10-24T06:19:59.538Z,22.53
2022-10-24T06:22:29.610Z,20.57
2022-10-24T06:24:57.244Z,19.30
2022-10-24T06:27:24.375Z,19.13
2022-10-24T06:29:51.399Z,20.30
2022-10-24T06:32:19.633Z,19.27
2022-10-24T06:34:46.658Z,19.47
2022-10-24T06:37:13.626Z,19.77
2022-10-24T06:39:40.578Z,18.67
2022-10-24T06:42:07.677Z,20.20
2022-10-24T06:44:36.749Z,19.40
2022-10-24T06:47:03.778Z,20.97
2022-10-24T06:49:30.779Z,19.67
2022-10-24T06:51:58.846Z,18.90
2022-10-24T06:54:29.261Z,18.03
2022-10-24T06:56:57.410Z,17.37
2022-10-24T06:59:24.504Z,16.83
2022-10-24T07:01:51.560Z,17.83
2022-10-24T07:04:19.354Z,16.83
2022-10-24T07:06:46.372Z,18.50
2022-10-24T07:09:15.388Z,19.17
2022-10-24T07:11:43.584Z,18.00
2022-10-24T07:14:10.914Z,18.77
2022-10-24T07:16:38.524Z,17.33
2022-10-24T07:19:06.127Z,19.50
2022-10-24T07:21:33.871Z,19.33
2022-10-24T07:24:01.407Z,18.13
2022-10-24T07:26:29.499Z,18.63
2022-10-24T07:31:34.716Z,18.70
2022-10-24T07:34:03.691Z,19.33
2022-10-24T07:36:30.726Z,21.50
2022-10-24T07:38:59.008Z,24.60
2022-10-24T07:41:28.096Z,26.20
2022-10-24T07:43:55.312Z,27.60
2022-10-24T07:46:22.767Z,26.90
2022-10-24T07:48:53.464Z,29.27
2022-10-24T07:51:21.217Z,28.37
2022-10-24T07:53:48.483Z,29.77
2022-10-24T07:56:17.193Z,27.07
2022-10-24T07:58:45.970Z,28.07
2022-10-24T08:01:16.226Z,28.40
2022-10-24T08:03:43.685Z,29.90
2022-10-24T08:06:14.010Z,28.53
2022-10-24T08:08:41.381Z,28.17
2022-10-24T08:11:11.039Z,28.57
2022-10-24T08:13:38.550Z,28.53
2022-10-24T08:16:07.917Z,28.47
2022-10-24T08:18:39.637Z,26.57
2022-10-24T08:21:12.861Z,25.00
2022-10-24T08:23:43.442Z,25.37
2022-10-24T08:26:13.691Z,25.90
2022-10-24T08:28:41.402Z,23.77
2022-10-24T08:31:12.268Z,23.27
2022-10-24T08:33:39.604Z,22.17
2022-10-24T08:36:17.037Z,22.63
2022-10-24T08:38:44.054Z,22.60
2022-10-24T08:41:18.188Z,22.43
2022-10-24T08:43:45.189Z,21.80
2022-10-24T08:46:37.243Z,22.63
2022-10-24T08:49:25.923Z,22.60
2022-10-24T08:52:12.923Z,22.53
2022-10-24T08:54:42.470Z,22.87
2022-10-24T08:57:21.067Z,23.90
2022-10-24T08:59:48.583Z,23.43
2022-10-24T09:02:28.951Z,21.90
2022-10-24T09:05:21.250Z,23.87
2022-10-24T09:07:50.402Z,22.60
2022-10-24T09:10:23.239Z,23.20
2022-10-24T09:12:50.263Z,21.97
2022-10-24T09:15:29.029Z,21.67
2022-10-24T09:17:58.311Z,20.67
2022-10-24T09:20:33.530Z,22.40
2022-10-24T09:23:04.664Z,20.33
2022-10-24T09:25:36.113Z,20.07
2022-10-24T09:28:05.506Z,21.30
2022-10-24T09:30:33.493Z,20.57
2022-10-24T09:33:13.236Z,19.80
2022-10-24T09:35:40.446Z,18.67
2022-10-24T09:38:35.077Z,19.77
2022-10-24T09:41:24.325Z,18.93
2022-10-24T09:43:59.545Z,18.60
2022-10-24T09:46:28.535Z,18.33
2022-10-24T09:49:17.559Z,17.20
2022-10-24T09:51:51.171Z,18.10
2022-10-24T09:54:21.076Z,17.77
2022-10-24T09:56:54.712Z,16.77
2022-10-24T09:59:42.219Z,15.73
2022-10-24T10:02:19.780Z,16.23
2022-10-24T10:04:49.885Z,15.03
2022-10-24T10:07:27.423Z,14.57
2022-10-24T10:09:57.744Z,14.97
2022-10-24T10:12:38.128Z,15.27
2022-10-24T10:15:30.360Z,14.27
2022-10-24T10:18:01.355Z,13.93
2022-10-24T10:20:41.330Z,17.10
2022-10-24T10:23:28.364Z,14.30
2022-10-24T10:26:12.582Z,12.60
2022-10-24T10:29:15.490Z,12.57
2022-10-24T10:31:44.104Z,12.53
2022-10-24T10:34:26.163Z,12.93
2022-10-24T10:37:22.580Z,12.63
2022-10-24T10:40:15.286Z,12.93
2022-10-24T10:43:19.102Z,11.80
2022-10-24T10:45:47.804Z,11.03
2022-10-24T10:48:20.482Z,12.73
2022-10-24T10:51:05.888Z,12.93
2022-10-24T10:53:47.329Z,12.10
2022-10-24T10:56:42.597Z,12.50
2022-10-24T10:59:45.002Z,11.70
2022-10-24T11:02:34.928Z,11.67
2022-10-24T11:05:32.625Z,11.97
2022-10-24T11:08:27.611Z,12.03
2022-10-24T11:11:02.410Z,12.00
2022-10-24T11:13:40.759Z,12.50
2022-10-24T11:16:13.687Z,11.53
2022-10-24T11:18:44.936Z,10.93
2022-10-24T11:21:14.764Z,10.97
2022-10-24T11:23:51.252Z,10.57
2022-10-24T11:26:47.027Z,10.47
2022-10-24T11:30:05.306Z,10.00
2022-10-24T11:32:38.615Z,9.87
2022-10-24T11:35:26.600Z,10.40
2022-10-24T11:38:02.984Z,10.33
2022-10-24T11:40:31.613Z,9.97
2022-10-24T11:43:24.134Z,9.00
2022-10-24T11:46:01.727Z,11.30
2022-10-24T11:48:38.614Z,12.60
2022-10-24T11:51:17.728Z,9.13
2022-10-24T11:53:59.290Z,8.33
2022-10-24T11:56:40.222Z,7.80
2022-10-24T11:59:13.553Z,7.67
2022-10-24T12:01:40.449Z,7.90
2022-10-24T12:04:58.950Z,8.23
2022-10-24T12:07:53.237Z,8.03
2022-10-24T12:11:05.412Z,7.67
2022-10-24T12:13:41.424Z,7.10
2022-10-24T12:16:49.997Z,7.37
2022-10-24T12:19:20.030Z,7.73
2022-10-24T12:21:54.225Z,7.13
2022-10-24T12:24:30.969Z,7.27
2022-10-24T12:27:02.792Z,6.77
2022-10-24T12:29:33.639Z,7.07
2022-10-24T12:32:39.287Z,7.17
2022-10-24T12:35:33.909Z,7.77
2022-10-24T12:38:02.692Z,6.83
2022-10-24T12:40:48.187Z,6.40
2022-10-24T12:43:37.653Z,6.47
2022-10-24T12:46:21.744Z,6.90
2022-10-24T12:48:59.053Z,6.87
2022-10-24T12:51:42.210Z,6.80
2022-10-24T12:54:12.204Z,6.67
2022-10-24T12:56:51.302Z,6.27
2022-10-24T12:59:29.682Z,6.70
2022-10-24T13:02:12.576Z,6.37
2022-10-24T13:04:51.641Z,6.30
2022-10-24T13:07:39.635Z,6.90
2022-10-24T13:10:37.205Z,6.27
2022-10-24T13:13:37.989Z,7.93
2022-10-24T13:16:22.909Z,6.77
2022-10-24T13:19:07.880Z,6.77
2022-10-24T13:21:50.437Z,6.50
2022-10-24T13:24:17.353Z,7.30
2022-10-24T13:26:53.670Z,6.80
2022-10-24T13:29:23.693Z,6.70
2022-10-24T13:31:50.665Z,7.53
2022-10-24T13:34:19.471Z,6.77
2022-10-24T13:36:50.764Z,6.67
2022-10-24T13:39:26.684Z,7.07
2022-10-24T13:42:16.973Z,7.27
2022-10-24T13:44:48.425Z,8.47
2022-10-24T13:47:15.373Z,8.33
2022-10-24T13:49:53.093Z,9.83
2022-10-24T13:52:25.254Z,8.77
2022-10-24T13:55:02.681Z,7.87
2022-10-24T13:57:48.938Z,7.73
2022-10-24T14:00:22.025Z,6.57
2022-10-24T14:02:49.621Z,7.27
2022-10-24T14:05:37.815Z,6.90
2022-10-24T14:08:07.129Z,6.93
2022-10-24T14:10:34.302Z,7.17
2022-10-24T14:13:01.857Z,6.60
2022-10-24T14:15:32.432Z,6.83
2022-10-24T14:18:07.252Z,6.90
2022-10-24T14:20:37.665Z,7.20
2022-10-24T14:23:25.325Z,6.57
2022-10-24T14:26:20.589Z,5.37
2022-10-24T14:29:00.002Z,6.03
2022-10-24T14:31:31.033Z,5.87
2022-10-24T14:33:59.010Z,6.20
2022-10-24T14:36:29.652Z,6.07
2022-10-24T14:38:59.247Z,6.03
2022-10-24T14:41:31.792Z,5.80
2022-10-24T14:43:59.745Z,6.03
2022-10-24T14:46:40.251Z,6.60
2022-10-24T14:49:27.466Z,6.40
2022-10-24T14:52:10.842Z,6.77
2022-10-24T14:54:38.949Z,6.70
2022-10-24T14:57:15.812Z,6.53
2022-10-24T14:59:45.676Z,6.33
2022-10-24T15:02:27.682Z,6.67
2022-10-24T15:05:13.138Z,6.87
2022-10-24T15:07:52.383Z,8.27
2022-10-24T15:10:33.265Z,8.60
2022-10-24T15:13:23.636Z,10.97
2022-10-24T15:15:57.182Z,11.23
2022-10-24T15:18:30.634Z,10.23
2022-10-24T15:21:07.198Z,10.50
2022-10-24T15:23:37.987Z,9.80
2022-10-24T15:26:12.455Z,10.00
2022-10-24T15:28:45.578Z,10.00
2022-10-24T15:31:15.454Z,9.43
2022-10-24T15:33:42.927Z,9.83
2022-10-24T15:36:31.762Z,10.13
2022-10-24T15:39:07.720Z,8.97
2022-10-24T15:41:34.914Z,8.93
2022-10-24T15:44:02.416Z,10.30
2022-10-24T15:46:30.390Z,10.73
2022-10-24T15:48:57.367Z,12.83
2022-10-24T15:51:25.177Z,13.13
2022-10-24T15:53:53.812Z,14.00
2022-10-24T15:56:20.862Z,14.37
2022-10-24T16:01:31.518Z,15.50
2022-10-24T16:03:59.903Z,15.10
2022-10-24T16:06:27.736Z,15.73
2022-10-24T16:08:55.605Z,15.07
2022-10-24T16:11:23.336Z,14.67
2022-10-24T16:13:51.217Z,17.37
2022-10-24T16:16:18.239Z,14.87
2022-10-24T16:18:45.219Z,14.37
2022-10-24T16:21:22.017Z,16.10
2022-10-24T16:26:21.693Z,14.77
2022-10-24T16:28:48.712Z,14.43
2022-10-24T16:31:23.461Z,14.73
2022-10-24T16:33:51.590Z,13.87
2022-10-24T16:36:22.204Z,13.80
2022-10-24T16:38:51.981Z,14.60
2022-10-24T16:41:22.380Z,13.53
2022-10-24T16:43:50.553Z,13.90
2022-10-24T16:46:19.664Z,14.50
2022-10-24T16:48:47.572Z,13.27
2022-10-24T16:51:17.880Z,14.07
2022-10-24T16:53:45.248Z,14.07
2022-10-24T16:56:13.772Z,13.23
2022-10-24T16:58:41.492Z,13.70
2022-10-24T17:01:11.653Z,13.90
2022-10-24T17:03:38.940Z,14.73
2022-10-24T17:06:06.822Z,13.67
2022-10-24T17:08:33.975Z,14.27
2022-10-24T17:11:01.056Z,14.57
2022-10-24T17:13:28.616Z,14.33
2022-10-24T17:15:56.543Z,13.17
2022-10-24T17:18:25.475Z,13.67
2022-10-24T17:20:58.938Z,12.97
2022-10-24T17:23:26.350Z,12.63
2022-10-24T17:25:53.777Z,13.97
2022-10-24T17:28:21.222Z,12.67
2022-10-24T17:30:48.422Z,12.10
2022-10-24T17:33:15.629Z,11.83
2022-10-24T17:35:50.703Z,10.97
2022-10-24T17:38:26.677Z,10.73
2022-10-24T17:40:54.890Z,11.00
2022-10-24T17:43:25.519Z,10.77
2022-10-24T17:45:54.045Z,9.03
2022-10-24T17:48:21.428Z,9.37
2022-10-24T17:50:48.732Z,9.03
2022-10-24T17:53:17.904Z,8.30
2022-10-24T17:55:47.096Z,7.60
2022-10-24T17:58:15.620Z,8.10
2022-10-24T18:00:43.228Z,8.13
2022-10-24T18:03:10.308Z,8.37
2022-10-24T18:05:38.465Z,8.87
2022-10-24T18:08:11.236Z,7.50
2022-10-24T18:10:39.532Z,8.00
2022-10-24T18:13:07.377Z,8.50
2022-10-24T18:15:35.220Z,7.80
2022-10-24T18:18:02.264Z,7.40
2022-10-24T18:20:29.410Z,7.90
2022-10-24T18:22:56.350Z,6.87
2022-10-24T18:25:23.744Z,7.27
2022-10-24T18:27:51.139Z,7.10
2022-10-24T18:30:19.632Z,6.83
2022-10-24T18:32:47.218Z,7.23
2022-10-24T18:35:15.619Z,7.37
2022-10-24T18:37:42.932Z,8.00
2022-10-24T18:40:10.508Z,7.53
2022-10-24T18:42:49.027Z,7.83
2022-10-24T18:45:21.652Z,7.33
2022-10-24T18:47:49.542Z,7.37
2022-10-24T18:50:19.960Z,6.63
2022-10-24T18:52:55.892Z,7.80
2022-10-24T18:55:25.592Z,7.43
2022-10-24T18:57:52.892Z,7.33
2022-10-24T19:00:22.878Z,7.07
2022-10-24T19:03:11.260Z,7.03
2022-10-24T19:05:44.427Z,7.63
2022-10-24T19:08:23.474Z,7.67
2022-10-24T19:10:56.125Z,6.27
2022-10-24T19:13:25.292Z,6.93
2022-10-24T19:16:00.872Z,6.03
2022-10-24T19:18:31.041Z,7.30
2022-10-24T19:20:59.322Z,6.70
2022-10-24T19:23:26.401Z,6.30
2022-10-24T19:25:53.824Z,7.47
2022-10-24T19:28:21.028Z,6.63
2022-10-24T19:30:48.997Z,6.90
2022-10-24T19:33:16.855Z,7.07
2022-10-24T19:35:48.060Z,6.43
2022-10-24T19:38:16.522Z,7.73
2022-10-24T19:40:54.621Z,6.80
2022-10-24T19:43:23.175Z,6.90
2022-10-24T19:46:07.280Z,5.93
2022-10-24T19:48:40.182Z,6.83
2022-10-24T19:51:12.422Z,6.70
2022-10-24T19:53:41.169Z,6.83
2022-10-24T19:56:13.706Z,6.87
2022-10-24T19:58:41.780Z,6.23
2022-10-24T20:01:10.065Z,7.07
2022-10-24T20:03:38.439Z,6.50
2022-10-24T20:06:06.418Z,6.13
2022-10-24T20:08:33.702Z,6.80
2022-10-24T20:11:00.824Z,7.30
2022-10-24T20:13:28.076Z,6.20
2022-10-24T20:16:06.453Z,6.40
2022-10-24T20:18:37.745Z,6.83
2022-10-24T20:21:07.127Z,6.90
2022-10-24T20:23:35.241Z,6.90
2022-10-24T20:26:13.989Z,6.17
2022-10-24T20:28:44.325Z,7.17
2022-10-24T20:31:20.879Z,6.80
2022-10-24T20:33:48.278Z,6.93
2022-10-24T20:36:15.262Z,6.37
2022-10-24T20:38:42.221Z,6.90
2022-10-24T20:41:09.334Z,7.17
2022-10-24T20:43:36.317Z,7.07
2022-10-24T20:46:06.831Z,6.97
2022-10-24T20:48:34.777Z,7.27
2022-10-24T20:51:21.126Z,7.47
2022-10-24T20:53:48.397Z,7.30
2022-10-24T20:56:17.922Z,7.43
2022-10-24T20:58:45.823Z,6.67
2022-10-24T21:01:19.127Z,6.83
2022-10-24T21:03:46.212Z,6.80
2022-10-24T21:06:25.027Z,6.83
2022-10-24T21:08:54.248Z,7.87
2022-10-24T21:11:25.930Z,8.20
2022-10-24T21:13:54.839Z,7.70
2022-10-24T21:16:22.933Z,6.90
2022-10-24T21:18:50.150Z,7.97
2022-10-24T21:21:18.092Z,7.53
2022-10-24T21:23:45.583Z,7.43
2022-10-24T21:26:14.099Z,6.57
2022-10-24T21:28:41.316Z,7.03
2022-10-24T21:31:11.148Z,6.37
2022-10-24T21:33:39.540Z,6.70
2022-10-24T21:36:08.752Z,7.03
2022-10-24T21:38:35.844Z,7.43
2022-10-24T21:41:07.684Z,7.73
2022-10-24T21:43:36.578Z,7.57
2022-10-24T21:46:07.473Z,6.70
2022-10-24T21:48:35.424Z,8.50
2022-10-24T21:51:03.414Z,7.63
2022-10-24T21:53:30.418Z,7.60
2022-10-24T21:56:09.582Z,7.87
2022-10-24T21:58:37.089Z,7.80
2022-10-24T22:01:15.584Z,7.97
2022-10-24T22:03:42.939Z,7.63
2022-10-24T22:06:13.173Z,7.70
2022-10-24T22:08:40.386Z,6.97
2022-10-24T22:11:09.745Z,7.37
2022-10-24T22:13:37.147Z,7.30
2022-10-24T22:16:05.618Z,8.03
2022-10-24T22:18:33.544Z,7.43
2022-10-24T22:21:01.712Z,6.93
2022-10-24T22:23:29.009Z,7.27
2022-10-24T22:25:58.161Z,8.40
2022-10-24T22:28:25.475Z,8.73
2022-10-24T22:30:52.867Z,8.53
2022-10-24T22:33:37.403Z,9.80
2022-10-24T22:36:07.900Z,8.03
2022-10-24T22:38:35.144Z,8.00
2022-10-24T22:41:02.445Z,7.80
2022-10-24T22:43:29.727Z,9.57
2022-10-24T22:46:22.813Z,8.10
2022-10-24T22:48:56.233Z,8.57
2022-10-24T22:51:23.859Z,8.83
2022-10-24T22:53:51.160Z,8.03
2022-10-24T22:56:27.520Z,8.27
2022-10-24T22:58:54.736Z,7.60
2022-10-24T23:01:50.613Z,8.20
2022-10-24T23:04:23.797Z,8.40
2022-10-24T23:07:27.484Z,9.07
2022-10-24T23:09:55.177Z,8.03
2022-10-24T23:12:22.938Z,9.03
2022-10-24T23:14:50.717Z,7.70
2022-10-24T23:17:26.561Z,8.47
2022-10-24T23:19:54.709Z,8.07
2022-10-24T23:22:30.759Z,7.20
2022-10-24T23:25:01.947Z,7.40
2022-10-24T23:27:39.305Z,8.03
2022-10-24T23:30:07.904Z,7.93
2022-10-24T23:32:38.488Z,8.23
2022-10-24T23:35:06.089Z,8.03
2022-10-24T23:37:34.761Z,7.07
2022-10-24T23:40:12.571Z,7.47
2022-10-24T23:42:39.781Z,7.17
2022-10-24T23:45:11.597Z,7.77
2022-10-24T23:47:59.821Z,7.70
2022-10-24T23:50:45.268Z,7.83
2022-10-24T23:53:20.780Z,7.40
2022-10-24T23:55:48.214Z,7.90
2022-10-24T23:58:15.315Z,7.77
